createdAt,value
2023-04-23T00:11:47.650Z,2.85
2023-04-23T00:26:49.215Z,2.60
2023-04-23T00:41:50.828Z,2.83
2023-04-23T00:56:52.395Z,2.70
2023-04-23T01:11:54.009Z,2.63
2023-04-23T01:26:55.606Z,2.33
2023-04-23T01:41:57.597Z,2.60
2023-04-23T01:56:59.291Z,2.53
2023-04-23T02:12:01.984Z,2.45
2023-04-23T02:27:03.730Z,2.95
2023-04-23T02:42:05.323Z,3.78
2023-04-23T02:57:07.025Z,4.35
2023-04-23T03:12:09.859Z,4.25
2023-04-23T03:27:11.709Z,4.00
2023-04-23T03:42:13.953Z,5.53
2023-04-23T03:57:16.480Z,15.65
2023-04-23T04:12:51.299Z,5.90
2023-04-23T04:27:52.977Z,5.10
2023-04-23T04:42:55.275Z,5.03
2023-04-23T04:57:56.962Z,4.35
2023-04-23T05:12:58.620Z,4.07
2023-04-23T05:28:00.212Z,3.88
2023-04-23T05:43:02.203Z,3.58
2023-04-23T05:58:05.213Z,2.15
2023-04-23T06:13:06.821Z,1.52
2023-04-23T06:28:08.444Z,1.40
2023-04-23T06:43:21.273Z,1.50
2023-04-23T06:58:45.738Z,1.77
2023-04-23T07:13:53.358Z,1.40
2023-04-23T07:28:54.989Z,1.67
2023-04-23T07:43:56.780Z,1.48
2023-04-23T07:58:58.822Z,1.20
2023-04-23T08:14:01.694Z,2.30
2023-04-23T08:29:03.448Z,1.10
2023-04-23T08:44:05.025Z,1.50
2023-04-23T08:59:06.830Z,1.40
2023-04-23T09:14:08.429Z,1.52
2023-04-23T09:29:09.997Z,1.08
2023-04-23T09:44:14.020Z,1.17
2023-04-23T09:59:15.634Z,1.10
2023-04-23T10:14:17.246Z,1.25
2023-04-23T10:29:19.044Z,1.40
2023-04-23T10:44:42.259Z,1.17
2023-04-23T10:59:46.641Z,1.00
2023-04-23T11:14:48.392Z,1.13
2023-04-23T11:29:49.996Z,0.95
2023-04-23T12:15:39.025Z,0.77
2023-04-23T12:30:40.772Z,0.50
2023-04-23T12:45:42.460Z,0.90
2023-04-23T13:00:44.118Z,0.73
2023-04-23T13:15:45.720Z,1.10
2023-04-23T13:30:47.396Z,0.77
2023-04-23T13:45:49.018Z,0.90
2023-04-23T14:00:50.774Z,1.00
2023-04-23T14:15:52.536Z,1.10
2023-04-23T14:30:54.168Z,0.80
2023-04-23T14:45:55.793Z,1.10
2023-04-23T15:00:57.511Z,0.82
2023-04-23T15:16:02.462Z,0.88
2023-04-23T15:31:04.124Z,1.00
2023-04-23T15:46:05.927Z,0.90
2023-04-23T16:01:09.896Z,1.83
2023-04-23T16:16:11.592Z,1.77
2023-04-23T16:31:13.371Z,2.20
2023-04-23T16:46:25.337Z,1.35
2023-04-23T17:01:27.424Z,4.45
2023-04-23T17:16:29.295Z,2.15
2023-04-23T17:31:31.053Z,1.63
2023-04-23T17:46:32.796Z,4.10
2023-04-23T18:01:35.050Z,2.30
2023-04-23T18:16:36.765Z,1.95
2023-04-23T18:31:38.392Z,2.20
2023-04-23T18:46:42.939Z,2.38
2023-04-23T19:01:46.422Z,1.63
2023-04-23T19:16:48.259Z,1.55
2023-04-23T19:31:50.028Z,1.80
2023-04-23T19:46:51.725Z,1.40
2023-04-23T20:01:53.318Z,1.77
2023-04-23T20:16:54.964Z,1.60
2023-04-23T20:31:56.599Z,2.08
2023-04-23T20:46:58.230Z,2.10
2023-04-23T21:01:59.874Z,2.00
2023-04-23T21:17:01.506Z,1.90
2023-04-23T21:32:03.115Z,1.40
2023-04-23T21:47:04.957Z,1.33
2023-04-23T22:02:06.737Z,1.20
2023-04-23T22:17:09.268Z,1.25
2023-04-23T22:32:10.985Z,1.20
2023-04-23T22:47:12.585Z,1.25
2023-04-23T23:02:14.271Z,3.20
2023-04-23T23:17:15.940Z,1.27
2023-04-23T23:32:17.509Z,1.17
2023-04-23T23:47:19.135Z,1.45
